Time;durP1;ratioP1;P1;durP2;ratioP2;P2;SDS_P1;SDS_P2;PMS_P1;PMS_P2;Temp;Humidity;BMP_temperature;BMP_pressure;BME280_temperature;BME280_humidity;BME280_pressure;Samples;Min_cycle;Max_cycle;Signal;HPM_P1;HPM_P2
2023/04/01 00:01:25;;;;;;;4.15;2.28;;;9.80;99.90;;;;;;5075185;28;20028;-64
2023/04/01 00:03:51;;;;;;;3.28;1.92;;;9.80;99.90;;;;;;5057011;28;20078;-64
2023/04/01 00:06:18;;;;;;;2.92;1.92;;;9.80;99.90;;;;;;5074792;28;20060;-64
2023/04/01 00:08:44;;;;;;;3.28;2.10;;;9.80;99.90;;;;;;5056854;28;20512;-64
2023/04/01 00:11:10;;;;;;;4.10;2.33;;;9.80;99.90;;;;;;5075096;28;20045;-64
2023/04/01 00:13:36;;;;;;;4.57;2.10;;;11.00;99.90;;;;;;5074853;28;20044;-64
2023/04/01 00:16:03;;;;;;;4.28;2.05;;;9.70;99.90;;;;;;5074655;28;20119;-64
2023/04/01 00:18:30;;;;;;;2.65;2.15;;;9.70;99.90;;;;;;5057055;28;20063;-64
2023/04/01 00:20:56;;;;;;;2.83;1.80;;;9.70;99.90;;;;;;5074530;28;20029;-64
2023/04/01 00:23:21;;;;;;;2.53;1.70;;;9.70;99.90;;;;;;5074822;28;20468;-64
2023/04/01 00:25:47;;;;;;;4.20;1.80;;;9.70;99.90;;;;;;5074817;28;20036;-65
2023/04/01 00:28:15;;;;;;;3.42;2.00;;;9.70;99.90;;;;;;5074741;28;20542;-64
2023/04/01 00:30:41;;;;;;;4.63;1.83;;;9.70;99.90;;;;;;5056882;28;20040;-64
2023/04/01 00:33:06;;;;;;;3.38;1.77;;;9.80;99.90;;;;;;5074388;28;20037;-64
2023/04/01 00:35:32;;;;;;;2.05;1.67;;;9.80;99.90;;;;;;5073418;28;20035;-64
2023/04/01 00:37:58;;;;;;;2.92;1.80;;;9.80;99.90;;;;;;5074514;28;20032;-64
2023/04/01 00:40:39;;;;;;;5.05;2.08;;;9.80;99.90;;;;;;5056533;28;20101;-65
2023/04/01 00:43:13;;;;;;;;;;;9.70;99.90;;;;;;5074843;28;20116;-64
2023/04/01 00:45:41;;;;;;;2.47;1.55;;;9.70;99.90;;;;;;5074127;28;19920;-64
2023/04/01 00:48:13;;;;;;;2.80;1.85;;;9.70;99.90;;;;;;5074372;28;20469;-64
2023/04/01 00:50:42;;;;;;;2.15;1.45;;;9.70;99.90;;;;;;5074320;28;20032;-64
2023/04/01 00:53:08;;;;;;;3.53;2.13;;;9.70;99.90;;;;;;5074225;28;20102;-64
2023/04/01 00:55:39;;;;;;;4.95;2.22;;;9.70;99.90;;;;;;5056512;28;20040;-64
2023/04/01 00:58:10;;;;;;;2.65;1.55;;;9.70;99.90;;;;;;5074142;28;20116;-64
2023/04/01 01:00:37;;;;;;;2.65;2.00;;;9.70;99.90;;;;;;5074065;28;20477;-64
2023/04/01 01:03:03;;;;;;;3.13;1.95;;;9.70;99.90;;;;;;5074002;28;20036;-64
2023/04/01 01:05:46;;;;;;;3.55;2.20;;;9.70;99.90;;;;;;5073791;28;20154;-64
2023/04/01 01:08:43;;;;;;;5.78;1.95;;;9.70;99.90;;;;;;5073929;28;20041;-64
2023/04/01 01:11:12;;;;;;;3.95;1.85;;;9.70;99.90;;;;;;5073863;28;20087;-64
2023/04/01 01:14:01;;;;;;;5.15;2.20;;;9.70;99.90;;;;;;5073525;28;20048;-64
2023/04/01 01:16:35;;;;;;;3.72;2.03;;;9.70;99.90;;;;;;5073793;28;20426;-64
2023/04/01 01:19:22;;;;;;;4.40;2.20;;;9.70;99.90;;;;;;5073743;28;20044;-64
2023/04/01 01:21:53;;;;;;;5.20;2.03;;;9.70;99.90;;;;;;5073300;28;20045;-64
2023/04/01 01:24:51;;;;;;;2.75;1.88;;;9.70;99.90;;;;;;5073391;28;20127;-64
2023/04/01 01:27:19;;;;;;;2.63;1.77;;;9.70;99.90;;;;;;5073586;28;20044;-64
2023/04/01 01:30:15;;;;;;;2.45;1.77;;;9.70;99.90;;;;;;5073596;28;20040;-65
2023/04/01 01:32:55;;;;;;;3.75;1.70;;;9.70;99.90;;;;;;5073545;28;20083;-65
2023/04/01 01:35:32;;;;;;;3.63;2.10;;;9.70;99.90;;;;;;5073133;28;20044;-65
2023/04/01 01:38:03;;;;;;;2.40;1.75;;;9.70;99.90;;;;;;5073467;28;20111;-65
2023/04/01 01:40:32;;;;;;;2.85;1.95;;;9.70;99.90;;;;;;5073427;28;20079;-64
2023/04/01 01:43:04;;;;;;;3.63;2.10;;;9.70;99.90;;;;;;5073316;28;20045;-64
2023/04/01 01:45:33;;;;;;;4.75;1.83;;;9.70;99.90;;;;;;5055472;28;20041;-64
2023/04/01 01:48:01;;;;;;;6.25;1.77;;;9.70;99.90;;;;;;5038117;28;20041;-64
2023/04/01 01:50:27;;;;;;;4.10;1.77;;;9.70;99.90;;;;;;5073125;28;20076;-64
2023/04/01 01:53:04;;;;;;;4.13;2.20;;;9.70;99.90;;;;;;5073261;28;20418;-65
2023/04/01 01:55:34;;;;;;;3.78;1.90;;;9.70;99.90;;;;;;5073242;28;20046;-64
2023/04/01 01:58:05;;;;;;;3.35;2.20;;;9.70;99.90;;;;;;5072941;28;20083;-64
2023/04/01 02:00:33;;;;;;;2.63;1.83;;;9.70;99.90;;;;;;5038169;28;20102;-64
2023/04/01 02:02:59;;;;;;;3.65;1.63;;;9.70;99.90;;;;;;5099735;22;20394;-62
2023/04/01 02:05:29;;;;;;;3.35;1.88;;;9.70;99.90;;;;;;5132112;27;20537;-61
2023/04/01 02:08:05;;;;;;;3.33;1.98;;;10.80;99.90;;;;;;5134120;27;20065;-61
2023/04/01 02:10:35;;;;;;;4.10;1.80;;;9.80;99.90;;;;;;5134071;27;20118;-61
2023/04/01 02:13:07;;;;;;;5.15;1.65;;;9.70;99.90;;;;;;5115747;28;20031;-61
2023/04/01 02:15:41;;;;;;;2.42;1.52;;;9.70;99.90;;;;;;5133813;28;20047;-61
2023/04/01 02:18:07;;;;;;;4.28;1.92;;;9.70;99.90;;;;;;5115599;28;20045;-61
2023/04/01 02:20:35;;;;;;;4.20;2.15;;;9.70;99.90;;;;;;5115370;28;20039;-61
2023/04/01 02:23:03;;;;;;;4.18;1.67;;;10.50;99.90;;;;;;5133970;28;20489;-62
2023/04/01 02:25:33;;;;;;;2.33;1.50;;;9.70;99.90;;;;;;5115571;28;20051;-61
2023/04/01 02:28:01;;;;;;;1.98;1.42;;;9.60;99.90;;;;;;5134015;28;20050;-62
2023/04/01 02:30:28;;;;;;;5.47;1.58;;;9.60;99.90;;;;;;5133571;28;20043;-62
2023/04/01 02:32:56;;;;;;;3.20;1.52;;;9.60;99.90;;;;;;5133663;28;20038;-62
2023/04/01 02:35:23;;;;;;;3.20;1.95;;;9.60;99.90;;;;;;5115425;28;20042;-61
2023/04/01 02:37:51;;;;;;;3.10;1.70;;;9.60;99.90;;;;;;5133801;28;20565;-61
2023/04/01 02:40:17;;;;;;;2.05;1.23;;;9.60;99.90;;;;;;5115047;28;20042;-61
2023/04/01 02:42:43;;;;;;;2.45;1.30;;;9.60;99.90;;;;;;5115052;28;20043;-61
2023/04/01 02:45:10;;;;;;;3.78;1.42;;;9.60;99.90;;;;;;5115392;28;20032;-61
2023/04/01 02:47:36;;;;;;;2.45;1.00;;;9.60;99.90;;;;;;5133454;28;20039;-61
2023/04/01 02:50:01;;;;;;;1.58;0.70;;;9.60;99.90;;;;;;5133440;28;20374;-61
2023/04/01 02:52:29;;;;;;;5.32;1.00;;;9.60;99.90;;;;;;5133669;28;20043;-62
2023/04/01 02:54:55;;;;;;;2.42;1.50;;;9.60;99.90;;;;;;5133462;28;20050;-62
2023/04/01 02:57:21;;;;;;;2.35;1.25;;;9.60;99.90;;;;;;5113165;28;20039;-62
2023/04/01 02:59:47;;;;;;;2.28;1.48;;;9.60;99.90;;;;;;5136603;27;20111;-61
2023/04/01 03:02:13;;;;;;;4.13;2.00;;;9.60;99.90;;;;;;5118751;27;20393;-61
2023/04/01 03:04:39;;;;;;;3.28;1.65;;;9.60;99.90;;;;;;5137559;27;20110;-62
2023/04/01 03:07:04;;;;;;;3.72;2.03;;;9.60;99.90;;;;;;5137438;27;20031;-61
2023/04/01 03:09:30;;;;;;;3.38;1.88;;;9.70;99.90;;;;;;5137403;27;20470;-62
2023/04/01 03:11:56;;;;;;;4.47;2.20;;;9.60;99.90;;;;;;5137327;27;20389;-62
2023/04/01 03:14:21;;;;;;;2.55;1.77;;;9.70;99.90;;;;;;5137417;27;20035;-62
2023/04/01 03:16:47;;;;;;;3.47;2.30;;;9.70;99.90;;;;;;5137368;27;20042;-61
2023/04/01 03:19:13;;;;;;;2.95;1.85;;;9.70;99.90;;;;;;5137274;27;20444;-61
2023/04/01 03:21:39;;;;;;;3.75;2.00;;;9.70;99.90;;;;;;5118698;27;20063;-61
2023/04/01 03:24:06;;;;;;;3.35;1.92;;;9.70;99.90;;;;;;5136792;27;20027;-61
2023/04/01 03:26:31;;;;;;;5.30;2.30;;;9.70;99.90;;;;;;5118758;27;20038;-61
2023/04/01 03:28:57;;;;;;;4.03;2.50;;;9.70;99.90;;;;;;5136966;27;20466;-61
2023/04/01 03:31:24;;;;;;;3.63;2.00;;;10.70;99.90;;;;;;5136981;27;20524;-61
2023/04/01 03:33:50;;;;;;;4.70;2.50;;;9.70;99.90;;;;;;5136910;27;20126;-61
2023/04/01 03:36:15;;;;;;;4.20;2.55;;;9.70;99.90;;;;;;5136901;27;20094;-61
2023/04/01 03:38:42;;;;;;;3.67;1.95;;;9.70;99.90;;;;;;5136890;27;20406;-61
2023/04/01 03:41:11;;;;;;;2.95;2.00;;;9.90;99.90;;;;;;5136450;27;20486;-62
2023/04/01 03:43:36;;;;;;;5.68;2.55;;;9.70;99.90;;;;;;5136776;27;20043;-61
2023/04/01 03:46:02;;;;;;;4.65;2.60;;;9.70;99.90;;;;;;5136772;27;20031;-62
2023/04/01 03:48:27;;;;;;;5.38;2.35;;;11.50;99.90;;;;;;5136716;27;20077;-61
2023/04/01 03:50:53;;;;;;;5.35;2.78;;;9.70;99.90;;;;;;5136655;27;20035;-61
2023/04/01 03:53:19;;;;;;;4.72;2.70;;;9.70;99.90;;;;;;5117859;27;20148;-61
2023/04/01 03:55:45;;;;;;;3.65;2.20;;;9.70;99.90;;;;;;5118223;27;20039;-61
2023/04/01 03:58:11;;;;;;;3.92;2.38;;;9.70;99.90;;;;;;5136544;27;20474;-61
2023/04/01 04:00:37;;;;;;;4.68;2.60;;;9.70;99.90;;;;;;5136423;27;20046;-61
2023/04/01 04:03:03;;;;;;;4.22;2.40;;;9.70;99.90;;;;;;5136142;27;20047;-61
2023/04/01 04:05:28;;;;;;;4.43;2.63;;;9.70;99.90;;;;;;5100707;27;20055;-61
2023/04/01 04:07:54;;;;;;;4.68;2.50;;;9.70;99.90;;;;;;5136365;27;20450;-61
2023/04/01 04:10:22;;;;;;;3.88;2.47;;;9.70;99.90;;;;;;5135633;27;20031;-62
2023/04/01 04:12:49;;;;;;;4.68;2.60;;;9.70;99.90;;;;;;5136250;27;20039;-61
2023/04/01 04:15:15;;;;;;;4.95;2.70;;;9.70;99.90;;;;;;5117467;27;20100;-61
2023/04/01 04:17:41;;;;;;;8.13;3.03;;;9.70;99.90;;;;;;5135925;27;20027;-61
2023/04/01 04:20:07;;;;;;;5.28;2.90;;;9.70;99.90;;;;;;5117653;27;20374;-61
2023/04/01 04:22:33;;;;;;;5.45;2.50;;;9.70;99.90;;;;;;5117208;27;20101;-62
2023/04/01 04:24:59;;;;;;;4.32;2.72;;;9.70;99.90;;;;;;5135873;27;20067;-61
2023/04/01 04:27:25;;;;;;;5.05;2.78;;;9.70;99.90;;;;;;5135947;27;20035;-61
2023/04/01 04:29:50;;;;;;;4.13;2.47;;;9.70;99.90;;;;;;5135661;27;20476;-62
2023/04/01 04:32:16;;;;;;;4.50;2.55;;;9.70;99.90;;;;;;5117150;27;20485;-61
2023/04/01 04:34:41;;;;;;;3.63;2.10;;;9.70;99.90;;;;;;5117435;27;20084;-61
2023/04/01 04:37:07;;;;;;;5.72;2.50;;;9.70;99.90;;;;;;5135667;27;20043;-62
2023/04/01 04:39:33;;;;;;;5.20;2.67;;;9.70;99.90;;;;;;5135411;27;20043;-62
2023/04/01 04:41:58;;;;;;;4.95;2.90;;;9.70;99.90;;;;;;5135190;27;20139;-61
2023/04/01 04:44:24;;;;;;;4.88;2.75;;;9.70;99.90;;;;;;5117280;27;20108;-61
2023/04/01 04:46:50;;;;;;;5.80;2.97;;;9.70;99.90;;;;;;5135233;27;20035;-61
2023/04/01 04:49:15;;;;;;;4.90;2.63;;;9.70;99.90;;;;;;5117177;27;20042;-61
2023/04/01 04:51:41;;;;;;;4.95;2.90;;;9.70;99.90;;;;;;5135160;27;20039;-61
2023/04/01 04:54:07;;;;;;;6.38;3.17;;;9.70;99.90;;;;;;5135332;27;20035;-61
2023/04/01 04:56:33;;;;;;;5.47;2.95;;;9.70;99.90;;;;;;5135265;27;20039;-62
2023/04/01 04:58:59;;;;;;;5.65;3.40;;;9.70;99.90;;;;;;5116636;27;20046;-61
2023/04/01 05:01:25;;;;;;;5.50;3.03;;;9.70;99.90;;;;;;5135199;27;20043;-61
2023/04/01 05:03:51;;;;;;;6.75;2.90;;;9.70;99.90;;;;;;5116344;27;20090;-61
2023/04/01 05:06:18;;;;;;;6.95;3.70;;;9.70;99.90;;;;;;5099621;27;20087;-61
2023/04/01 05:08:44;;;;;;;5.75;3.05;;;9.70;99.90;;;;;;5134995;27;20092;-61
2023/04/01 05:11:13;;;;;;;7.45;3.78;;;9.70;99.90;;;;;;5116611;27;20038;-61
2023/04/01 05:13:39;;;;;;;4.03;2.58;;;9.70;99.90;;;;;;5134990;27;20035;-62
2023/04/01 05:16:11;;;;;;;5.88;3.03;;;9.70;99.90;;;;;;5134906;27;20062;-62
2023/04/01 05:18:37;;;;;;;6.85;2.72;;;9.70;99.90;;;;;;5134908;27;20085;-62
2023/04/01 05:21:03;;;;;;;3.60;2.03;;;9.80;99.90;;;;;;5134200;27;20085;-62
2023/04/01 05:23:32;;;;;;;3.80;2.17;;;9.70;99.90;;;;;;5134616;27;20035;-62
2023/04/01 05:26:02;;;;;;;2.65;1.70;;;9.70;99.90;;;;;;5134703;27;20137;-61
2023/04/01 05:28:27;;;;;;;3.38;1.90;;;9.60;99.90;;;;;;5134651;27;20070;-62
2023/04/01 05:30:53;;;;;;;5.15;2.50;;;9.70;99.90;;;;;;5134332;27;20158;-62
2023/04/01 05:33:19;;;;;;;4.32;2.08;;;9.60;99.90;;;;;;5134555;27;20031;-62
2023/04/01 05:35:44;;;;;;;4.13;2.60;;;9.60;99.90;;;;;;5115882;27;20505;-62
2023/04/01 05:38:10;;;;;;;4.60;2.50;;;9.60;99.90;;;;;;5134380;27;20478;-62
2023/04/01 05:40:36;;;;;;;4.10;2.63;;;9.60;99.90;;;;;;5134426;27;20034;-62
2023/04/01 05:43:02;;;;;;;3.42;2.08;;;9.60;99.90;;;;;;5134459;27;20061;-62
2023/04/01 05:45:27;;;;;;;2.65;1.67;;;9.60;99.90;;;;;;5134369;27;20031;-62
2023/04/01 05:47:54;;;;;;;4.13;2.30;;;9.60;99.90;;;;;;5134071;27;20075;-63
2023/04/01 05:50:20;;;;;;;4.95;2.97;;;9.60;99.90;;;;;;5134001;27;20078;-62
2023/04/01 05:52:46;;;;;;;6.85;3.50;;;9.60;99.90;;;;;;5133955;27;20497;-63
2023/04/01 05:55:11;;;;;;;4.95;3.08;;;9.60;99.90;;;;;;5133996;27;20035;-63
2023/04/01 05:57:37;;;;;;;6.22;3.05;;;9.60;99.90;;;;;;5134202;27;20531;-66
2023/04/01 06:00:04;;;;;;;5.25;2.92;;;10.20;99.90;;;;;;5134230;27;20031;-66
2023/04/01 06:02:29;;;;;;;5.53;3.30;;;9.60;99.90;;;;;;5115225;27;20044;-62
2023/04/01 06:05:11;;;;;;;6.72;3.78;;;9.60;99.90;;;;;;5134171;27;20538;-63
2023/04/01 06:07:36;;;;;;;5.85;3.22;;;9.60;99.90;;;;;;5133694;27;20051;-65
2023/04/01 06:10:09;;;;;;;7.60;4.03;;;9.60;99.90;;;;;;5133943;27;20035;-62
2023/04/01 06:12:50;;;;;;;6.80;3.33;;;9.70;99.90;;;;;;5133519;28;20099;-62
2023/04/01 06:15:39;;;;;;;7.17;4.17;;;9.60;99.90;;;;;;5133937;28;20490;-62
2023/04/01 06:18:35;;;;;;;6.35;3.83;;;9.60;99.90;;;;;;5115829;28;20031;-62
2023/04/01 06:21:29;;;;;;;5.32;3.60;;;9.70;99.90;;;;;;5133511;28;20066;-64
2023/04/01 06:24:17;;;;;;;10.30;4.32;;;9.70;99.90;;;;;;5133773;28;20039;-62
2023/04/01 06:26:55;;;;;;;9.88;4.00;;;9.70;99.90;;;;;;5133806;28;20478;-68
2023/04/01 06:29:29;;;;;;;7.47;4.05;;;9.70;99.90;;;;;;5115496;28;20374;-63
2023/04/01 06:32:22;;;;;;;6.07;3.85;;;9.70;99.90;;;;;;5133496;28;20051;-63
2023/04/01 06:35:03;;;;;;;7.97;3.80;;;9.70;99.90;;;;;;5137942;27;20445;-65
2023/04/01 06:37:46;;;;;;;6.47;3.50;;;9.70;99.90;;;;;;5137898;27;20039;-62
2023/04/01 06:40:33;;;;;;;8.60;4.20;;;9.80;99.90;;;;;;5137958;27;20035;-62
2023/04/01 06:43:17;;;;;;;9.95;4.53;;;9.90;99.90;;;;;;5118938;27;20047;-61
2023/04/01 06:45:52;;;;;;;6.22;3.70;;;9.90;99.90;;;;;;5137918;27;20088;-62
2023/04/01 06:48:23;;;;;;;5.95;3.33;;;9.90;99.90;;;;;;5137825;27;20387;-62
2023/04/01 06:51:08;;;;;;;7.22;3.72;;;10.00;99.90;;;;;;5119011;27;20047;-62
2023/04/01 06:53:51;;;;;;;9.07;4.38;;;10.10;99.90;;;;;;5137760;27;20122;-63
2023/04/01 06:56:20;;;;;;;6.88;3.92;;;10.10;99.90;;;;;;5137637;27;20039;-62
2023/04/01 06:58:54;;;;;;;7.00;4.43;;;10.20;99.90;;;;;;5137591;27;20348;-63
2023/04/01 07:01:26;;;;;;;7.15;4.40;;;10.30;99.90;;;;;;5136951;27;20402;-62
2023/04/01 07:04:00;;;;;;;8.15;4.65;;;10.30;99.90;;;;;;5137036;27;20556;-63
2023/04/01 07:06:48;;;;;;;6.25;3.45;;;10.40;99.90;;;;;;5137393;27;20437;-63
2023/04/01 07:09:20;;;;;;;9.13;4.60;;;10.40;99.90;;;;;;5137219;27;20027;-62
2023/04/01 07:11:46;;;;;;;8.25;4.13;;;10.50;99.90;;;;;;5137243;27;20477;-62
2023/04/01 07:14:45;;;;;;;8.30;4.47;;;10.90;99.90;;;;;;5137242;27;20074;-61
2023/04/01 07:17:26;;;;;;;9.63;4.30;;;10.60;99.90;;;;;;5102640;27;20054;-61
2023/04/01 07:20:16;;;;;;;6.88;3.38;;;10.70;99.90;;;;;;5137252;27;20427;-61
2023/04/01 07:22:45;;;;;;;7.55;4.05;;;10.80;99.90;;;;;;5136925;27;20043;-61
2023/04/01 07:25:35;;;;;;;9.75;4.70;;;10.80;99.90;;;;;;5118417;27;20126;-61
2023/04/01 07:28:10;;;;;;;7.55;3.97;;;10.90;99.90;;;;;;5137022;27;20039;-61
2023/04/01 07:30:58;;;;;;;7.00;4.20;;;11.00;99.90;;;;;;5136917;27;20042;-61
2023/04/01 07:33:43;;;;;;;8.20;3.97;;;11.10;99.90;;;;;;5136951;27;20060;-62
2023/04/01 07:36:39;;;;;;;8.63;3.72;;;11.20;99.90;;;;;;5136880;27;20035;-61
2023/04/01 07:39:40;;;;;;;6.75;3.78;;;11.20;99.90;;;;;;5118491;27;20054;-61
2023/04/01 07:42:48;;;;;;;6.63;3.47;;;11.40;99.90;;;;;;5085908;27;20099;-62
2023/04/01 07:45:36;;;;;;;6.68;3.85;;;11.40;99.90;;;;;;5136053;27;20076;-61
2023/04/01 07:48:41;;;;;;;10.15;4.25;;;11.40;99.90;;;;;;5136640;27;20039;-62
2023/04/01 07:51:17;;;;;;;7.15;3.63;;;11.40;99.90;;;;;;5136244;27;20084;-63
2023/04/01 07:53:57;;;;;;;8.43;4.13;;;11.50;99.90;;;;;;5136643;27;20035;-62
2023/04/01 07:56:31;;;;;;;6.82;3.83;;;11.50;99.90;;;;;;5117895;27;20035;-61
2023/04/01 07:59:19;;;;;;;8.50;3.90;;;11.50;99.90;;;;;;5136237;27;20083;-62
2023/04/01 08:02:24;;;;;;;7.43;3.75;;;11.60;99.90;;;;;;5136330;27;20088;-61
2023/04/01 08:04:52;;;;;;;8.50;3.65;;;11.60;99.90;;;;;;5104524;27;20055;-62
2023/04/01 08:07:24;;;;;;;6.97;3.47;;;11.60;99.90;;;;;;5117637;27;20039;-62
2023/04/01 08:10:08;;;;;;;7.40;3.47;;;11.70;99.90;;;;;;5136304;27;20039;-62
2023/04/01 08:13:10;;;;;;;5.78;3.05;;;11.50;99.90;;;;;;5136240;27;20043;-62
2023/04/01 08:15:58;;;;;;;5.32;2.75;;;11.50;99.90;;;;;;5136200;27;20449;-62
2023/04/01 08:18:58;;;;;;;4.47;2.15;;;11.50;99.90;;;;;;5135765;27;20046;-62
2023/04/01 08:21:27;;;;;;;4.47;2.58;;;11.50;99.90;;;;;;5136030;27;20031;-62
2023/04/01 08:23:57;;;;;;;4.65;2.67;;;11.90;99.90;;;;;;5118226;27;20436;-62
2023/04/01 08:26:34;;;;;;;6.22;2.65;;;11.50;99.90;;;;;;5135882;27;20118;-66
2023/04/01 08:29:02;;;;;;;4.20;2.47;;;11.50;99.90;;;;;;5135780;27;20031;-62
2023/04/01 08:31:51;;;;;;;4.80;2.63;;;11.50;99.90;;;;;;5117071;27;20039;-62
2023/04/01 08:34:23;;;;;;;4.47;2.58;;;11.50;99.90;;;;;;5135725;27;20039;-61
2023/04/01 08:36:55;;;;;;;5.05;2.70;;;11.40;99.90;;;;;;5117348;27;20058;-61
2023/04/01 08:39:31;;;;;;;5.03;2.72;;;11.50;99.90;;;;;;5135684;27;20035;-62
2023/04/01 08:41:57;;;;;;;4.30;2.25;;;11.50;99.90;;;;;;5116837;27;20405;-62
2023/04/01 08:45:00;;;;;;;5.22;2.72;;;12.10;99.90;;;;;;5135550;27;20042;-62
2023/04/01 08:47:35;;;;;;;4.43;2.58;;;11.50;99.90;;;;;;5135569;27;20046;-62
2023/04/01 08:50:03;;;;;;;5.45;3.38;;;11.40;99.90;;;;;;5135124;27;20110;-62
2023/04/01 08:52:55;;;;;;;5.25;3.13;;;11.30;99.90;;;;;;5135399;27;20042;-62
2023/04/01 08:55:38;;;;;;;9.18;3.80;;;11.30;99.90;;;;;;5110947;27;20415;-62
2023/04/01 08:58:30;;;;;;;7.03;3.95;;;11.20;99.90;;;;;;5134683;27;20088;-62
2023/04/01 09:01:26;;;;;;;5.40;2.72;;;11.20;99.90;;;;;;5134879;27;20057;-62
2023/04/01 09:04:13;;;;;;;8.35;3.45;;;11.20;99.90;;;;;;5134796;27;20502;-62
2023/04/01 09:07:00;;;;;;;6.25;3.67;;;11.20;99.90;;;;;;5134820;27;20027;-62
2023/04/01 09:09:39;;;;;;;8.98;3.83;;;11.20;99.90;;;;;;5116653;27;20482;-61
2023/04/01 09:12:14;;;;;;;4.78;3.10;;;11.20;99.90;;;;;;5116226;27;20043;-61
2023/04/01 09:14:59;;;;;;;5.47;3.30;;;11.20;99.90;;;;;;5116403;27;20043;-62
2023/04/01 09:17:52;;;;;;;8.50;2.88;;;11.30;99.90;;;;;;5131190;27;20379;-62
2023/04/01 09:20:36;;;;;;;6.90;3.58;;;11.30;99.90;;;;;;5131410;28;20397;-62
2023/04/01 09:23:17;;;;;;;6.65;3.47;;;11.50;99.90;;;;;;5112658;28;20046;-62
2023/04/01 09:25:49;;;;;;;8.18;3.25;;;11.50;99.90;;;;;;5131333;27;20075;-62
2023/04/01 09:28:35;;;;;;;6.40;2.88;;;11.60;99.90;;;;;;5131179;28;20500;-62
2023/04/01 09:31:39;;;;;;;4.43;2.88;;;11.70;99.90;;;;;;5131126;28;20450;-62
2023/04/01 09:34:25;;;;;;;5.45;3.33;;;11.70;99.90;;;;;;5131148;27;20481;-62
2023/04/01 09:37:34;;;;;;;7.30;3.90;;;11.70;99.90;;;;;;5129840;28;20062;-62
2023/04/01 09:40:13;;;;;;;9.73;3.80;;;11.70;99.90;;;;;;5129834;28;20519;-62
2023/04/01 09:42:43;;;;;;;5.90;3.75;;;11.70;99.90;;;;;;5131066;27;20110;-62
2023/04/01 09:45:29;;;;;;;7.65;3.88;;;11.80;99.90;;;;;;5130986;27;20402;-62
2023/04/01 09:48:13;;;;;;;8.77;3.67;;;11.90;99.90;;;;;;5129377;28;20047;-62
2023/04/01 09:51:01;;;;;;;5.88;3.55;;;11.90;99.90;;;;;;5130564;28;20074;-61
2023/04/01 09:53:56;;;;;;;5.35;3.30;;;11.90;99.90;;;;;;5129503;28;20039;-62
2023/04/01 09:57:15;;;;;;;5.30;2.72;;;11.90;99.90;;;;;;5129543;28;20042;-62
2023/04/01 09:59:59;;;;;;;4.68;2.70;;;11.80;99.90;;;;;;5067095;28;20439;-62
2023/04/01 10:03:10;;;;;;;5.50;2.45;;;11.90;99.90;;;;;;5125355;27;20055;-62
2023/04/01 10:06:00;;;;;;;3.70;2.10;;;11.80;99.90;;;;;;5130526;28;20049;-62
2023/04/01 10:09:20;;;;;;;3.38;2.05;;;11.90;99.90;;;;;;5130490;27;20036;-62
2023/04/01 10:12:08;;;;;;;4.50;2.08;;;11.80;99.90;;;;;;5066806;28;20044;-62
2023/04/01 10:15:10;;;;;;;3.10;1.90;;;11.80;99.90;;;;;;5146287;27;20058;-62
2023/04/01 10:17:44;;;;;;;4.03;1.83;;;11.70;99.90;;;;;;5130005;27;20047;-62
2023/04/01 10:20:31;;;;;;;2.78;1.65;;;11.60;99.90;;;;;;5130296;27;20054;-62
2023/04/01 10:23:16;;;;;;;2.65;1.58;;;11.50;99.90;;;;;;5128670;28;20046;-63
2023/04/01 10:25:56;;;;;;;3.00;1.95;;;11.40;99.90;;;;;;5129963;27;20446;-62
2023/04/01 10:28:44;;;;;;;2.42;1.77;;;11.30;99.90;;;;;;5119386;28;20039;-62
2023/04/01 10:31:27;;;;;;;3.47;2.30;;;11.30;99.90;;;;;;5115048;28;20051;-62
2023/04/01 10:34:05;;;;;;;2.75;1.70;;;12.70;99.90;;;;;;5116335;28;20118;-62
2023/04/01 10:36:42;;;;;;;3.35;1.48;;;11.20;99.90;;;;;;5115907;28;20043;-62
2023/04/01 10:39:38;;;;;;;2.90;1.80;;;11.20;99.90;;;;;;5116191;28;20039;-62
2023/04/01 10:42:22;;;;;;;2.30;1.50;;;11.10;99.90;;;;;;5114614;28;20043;-62
2023/04/01 10:45:27;;;;;;;2.47;1.50;;;11.10;99.90;;;;;;5116041;28;20118;-62
2023/04/01 10:48:22;;;;;;;2.75;1.40;;;11.00;99.90;;;;;;5115835;28;20048;-61
2023/04/01 10:51:07;;;;;;;2.97;1.42;;;11.00;99.90;;;;;;5114931;28;20418;-61
2023/04/01 10:53:56;;;;;;;1.95;1.38;;;10.90;99.90;;;;;;5115527;28;20043;-62
2023/04/01 10:56:53;;;;;;;2.47;1.42;;;11.00;99.90;;;;;;5114629;28;20036;-62
2023/04/01 10:59:28;;;;;;;2.17;1.38;;;11.00;99.90;;;;;;5115779;28;20043;-62
2023/04/01 11:01:58;;;;;;;2.17;1.38;;;11.00;99.90;;;;;;5115830;28;20036;-62
2023/04/01 11:04:42;;;;;;;1.90;1.20;;;11.00;99.90;;;;;;5114254;28;20051;-61
2023/04/01 11:07:49;;;;;;;2.92;1.38;;;10.90;99.90;;;;;;5114044;28;20046;-61
2023/04/01 11:10:32;;;;;;;1.35;1.08;;;10.90;99.90;;;;;;5092962;28;20123;-61
2023/04/01 11:13:24;;;;;;;2.35;0.88;;;10.90;99.90;;;;;;5115262;28;20108;-62
2023/04/01 11:16:15;;;;;;;1.23;0.80;;;10.80;99.90;;;;;;5130660;27;20431;-62
2023/04/01 11:19:14;;;;;;;1.70;1.08;;;10.80;99.90;;;;;;5115441;28;20097;-62
2023/04/01 11:22:19;;;;;;;1.52;0.98;;;10.70;99.90;;;;;;5115113;28;20039;-62
2023/04/01 11:25:09;;;;;;;1.15;1.00;;;10.70;99.90;;;;;;5083300;28;20047;-62
2023/04/01 11:28:06;;;;;;;2.17;1.10;;;10.60;99.90;;;;;;5114996;28;20126;-62
2023/04/01 11:31:03;;;;;;;2.20;1.27;;;10.60;99.90;;;;;;5114991;28;20036;-61
2023/04/01 11:33:38;;;;;;;1.33;0.95;;;10.60;99.90;;;;;;5115283;28;20084;-62
2023/04/01 11:36:08;;;;;;;1.23;0.98;;;10.50;99.90;;;;;;5115045;28;20082;-61
2023/04/01 11:38:56;;;;;;;1.45;1.08;;;11.80;99.90;;;;;;5113387;28;20532;-61
2023/04/01 11:41:48;;;;;;;2.30;1.13;;;10.50;99.90;;;;;;5114944;28;20040;-61
2023/04/01 11:44:17;;;;;;;;;;;10.50;99.90;;;;;;5115068;28;20074;-62
2023/04/01 11:47:03;;;;;;;1.35;0.90;;;10.40;99.90;;;;;;5114908;28;19922;-62
2023/04/01 11:49:35;;;;;;;1.50;1.00;;;10.40;99.90;;;;;;5113329;28;20043;-61
2023/04/01 11:52:21;;;;;;;1.48;1.10;;;10.50;99.90;;;;;;5114786;28;20043;-61
2023/04/01 11:55:14;;;;;;;1.75;1.15;;;10.50;99.90;;;;;;5114740;28;20050;-61
2023/04/01 11:57:46;;;;;;;2.53;1.20;;;10.50;99.90;;;;;;5113141;28;20101;-62
2023/04/01 12:00:39;;;;;;;2.28;1.10;;;10.50;99.90;;;;;;5114625;28;20432;-63
2023/04/01 12:03:21;;;;;;;1.73;1.00;;;10.60;99.90;;;;;;5114257;28;20044;-62
2023/04/01 12:06:01;;;;;;;1.60;1.00;;;10.60;99.90;;;;;;5113348;28;20073;-61
2023/04/01 12:08:32;;;;;;;1.90;1.25;;;10.60;99.90;;;;;;5114510;27;20039;-62
2023/04/01 12:11:32;;;;;;;2.38;1.40;;;10.60;99.90;;;;;;5114434;28;20035;-61
2023/04/01 12:14:16;;;;;;;2.03;1.20;;;10.70;99.90;;;;;;5112819;28;20127;-62
2023/04/01 12:17:18;;;;;;;2.70;1.55;;;10.60;99.90;;;;;;5113853;28;20138;-61
2023/04/01 12:19:43;;;;;;;1.92;1.23;;;10.60;99.90;;;;;;5112775;28;20044;-61
2023/04/01 12:22:21;;;;;;;1.40;0.95;;;10.70;99.90;;;;;;5114207;28;20040;-62
2023/04/01 12:24:55;;;;;;;0.80;0.70;;;10.70;99.90;;;;;;5113836;28;20065;-61
2023/04/01 12:27:40;;;;;;;1.15;0.93;;;11.10;99.90;;;;;;5114163;28;20046;-61
2023/04/01 12:30:21;;;;;;;1.45;0.82;;;10.60;99.90;;;;;;5114059;28;20122;-62
2023/04/01 12:33:19;;;;;;;1.65;1.08;;;10.60;99.90;;;;;;5114094;28;20532;-61
2023/04/01 12:36:10;;;;;;;0.88;0.80;;;10.60;99.90;;;;;;5113941;28;20501;-62
2023/04/01 12:38:59;;;;;;;1.00;0.85;;;10.50;99.90;;;;;;5113999;28;20047;-62
2023/04/01 12:41:37;;;;;;;1.55;0.90;;;10.50;99.90;;;;;;5112682;28;20039;-61
2023/04/01 12:44:34;;;;;;;2.30;1.17;;;10.60;99.90;;;;;;5112568;28;20043;-61
2023/04/01 12:47:24;;;;;;;1.13;0.75;;;10.50;99.90;;;;;;5113833;28;20430;-61
2023/04/01 12:50:27;;;;;;;1.17;0.95;;;10.50;99.90;;;;;;5113776;28;20047;-61
2023/04/01 12:53:18;;;;;;;2.03;1.42;;;10.40;99.90;;;;;;5113680;28;20126;-62
2023/04/01 12:55:52;;;;;;;1.58;1.00;;;10.40;99.90;;;;;;5113616;28;20399;-61
2023/04/01 12:58:36;;;;;;;1.90;1.27;;;10.40;99.90;;;;;;5113681;28;20039;-62
2023/04/01 13:01:08;;;;;;;1.65;1.17;;;10.30;99.90;;;;;;5113632;28;20043;-61
2023/04/01 13:03:43;;;;;;;1.35;1.08;;;10.20;99.90;;;;;;5113545;28;20075;-61
2023/04/01 13:06:27;;;;;;;0.80;0.75;;;10.20;99.90;;;;;;5112255;28;20124;-61
2023/04/01 13:09:07;;;;;;;2.45;1.15;;;10.10;99.90;;;;;;5113207;28;20043;-61
2023/04/01 13:12:00;;;;;;;1.55;0.90;;;10.00;99.90;;;;;;5112023;28;20039;-61
2023/04/01 13:14:55;;;;;;;1.40;1.00;;;10.00;99.90;;;;;;5113476;28;20090;-62
2023/04/01 13:17:30;;;;;;;1.70;0.90;;;10.00;99.90;;;;;;5112968;28;20085;-61
2023/04/01 13:20:16;;;;;;;1.80;0.80;;;10.00;99.90;;;;;;5111937;28;20047;-61
2023/04/01 13:23:03;;;;;;;1.85;0.75;;;9.90;99.90;;;;;;5112153;28;20048;-61
2023/04/01 13:26:01;;;;;;;2.65;0.90;;;9.90;99.90;;;;;;5111871;28;20080;-62
2023/04/01 13:28:47;;;;;;;2.25;1.00;;;9.80;99.90;;;;;;5113295;28;20032;-62
2023/04/01 13:31:50;;;;;;;0.98;0.80;;;9.80;99.90;;;;;;5111680;28;20047;-61
2023/04/01 13:34:44;;;;;;;2.40;0.70;;;9.80;99.90;;;;;;5111943;28;20044;-63
2023/04/01 13:37:27;;;;;;;1.02;0.70;;;9.70;99.90;;;;;;5111531;28;20050;-62
2023/04/01 13:40:04;;;;;;;0.60;0.60;;;9.70;99.90;;;;;;5113213;28;20046;-61
2023/04/01 13:42:37;;;;;;;0.73;0.70;;;9.70;99.90;;;;;;5111712;28;20410;-62
2023/04/01 13:45:16;;;;;;;1.08;0.90;;;9.60;99.90;;;;;;5113161;28;20042;-62